sensor_id;sensor_type;location;lat;lon;timestamp;P1;durP1;ratioP1;P2;durP2;ratioP2
38053;SDS011;23859;50.672;7.164;2023-03-07T00:00:16;27.33;;;13.55;;
38053;SDS011;23859;50.672;7.164;2023-03-07T00:02:42;29.90;;;13.80;;
38053;SDS011;23859;50.672;7.164;2023-03-07T00:05:08;32.58;;;14.48;;
38053;SDS011;23859;50.672;7.164;2023-03-07T00:07:34;30.23;;;15.02;;
38053;SDS011;23859;50.672;7.164;2023-03-07T00:10:01;26.73;;;15.23;;
38053;SDS011;23859;50.672;7.164;2023-03-07T00:12:27;31.92;;;15.52;;
38053;SDS011;23859;50.672;7.164;2023-03-07T00:14:54;29.13;;;14.20;;
38053;SDS011;23859;50.672;7.164;2023-03-07T00:17:20;27.33;;;14.90;;
38053;SDS011;23859;50.672;7.164;2023-03-07T00:19:46;29.67;;;15.13;;
38053;SDS011;23859;50.672;7.164;2023-03-07T00:22:12;27.17;;;14.25;;
38053;SDS011;23859;50.672;7.164;2023-03-07T00:24:38;26.20;;;14.25;;
38053;SDS011;23859;50.672;7.164;2023-03-07T00:27:04;28.08;;;14.27;;
38053;SDS011;23859;50.672;7.164;2023-03-07T00:29:30;26.35;;;14.00;;
38053;SDS011;23859;50.672;7.164;2023-03-07T00:31:56;25.58;;;13.05;;
38053;SDS011;23859;50.672;7.164;2023-03-07T00:34:22;26.02;;;13.98;;
38053;SDS011;23859;50.672;7.164;2023-03-07T00:36:48;25.85;;;12.07;;
38053;SDS011;23859;50.672;7.164;2023-03-07T00:39:14;29.80;;;14.88;;
38053;SDS011;23859;50.672;7.164;2023-03-07T00:41:40;25.67;;;13.80;;
38053;SDS011;23859;50.672;7.164;2023-03-07T00:44:06;24.95;;;12.48;;
38053;SDS011;23859;50.672;7.164;2023-03-07T00:46:32;26.73;;;13.80;;
38053;SDS011;23859;50.672;7.164;2023-03-07T00:48:58;20.35;;;10.77;;
38053;SDS011;23859;50.672;7.164;2023-03-07T00:51:25;19.73;;;11.15;;
38053;SDS011;23859;50.672;7.164;2023-03-07T00:53:51;20.15;;;10.10;;
38053;SDS011;23859;50.672;7.164;2023-03-07T00:56:17;17.67;;;9.75;;
38053;SDS011;23859;50.672;7.164;2023-03-07T00:58:45;18.83;;;9.63;;
38053;SDS011;23859;50.672;7.164;2023-03-07T01:01:13;18.13;;;9.45;;
38053;SDS011;23859;50.672;7.164;2023-03-07T01:03:41;15.43;;;8.73;;
38053;SDS011;23859;50.672;7.164;2023-03-07T01:06:08;17.05;;;8.48;;
38053;SDS011;23859;50.672;7.164;2023-03-07T01:08:38;13.45;;;7.65;;
38053;SDS011;23859;50.672;7.164;2023-03-07T01:11:05;15.75;;;8.10;;
38053;SDS011;23859;50.672;7.164;2023-03-07T01:13:32;16.20;;;9.02;;
38053;SDS011;23859;50.672;7.164;2023-03-07T01:18:57;11.93;;;6.82;;
38053;SDS011;23859;50.672;7.164;2023-03-07T01:23:52;14.80;;;7.20;;
38053;SDS011;23859;50.672;7.164;2023-03-07T01:26:20;13.15;;;7.50;;
38053;SDS011;23859;50.672;7.164;2023-03-07T01:28:49;11.55;;;6.32;;
38053;SDS011;23859;50.672;7.164;2023-03-07T01:31:16;9.93;;;6.47;;
38053;SDS011;23859;50.672;7.164;2023-03-07T01:33:42;11.02;;;6.30;;
38053;SDS011;23859;50.672;7.164;2023-03-07T01:36:14;11.10;;;5.95;;
38053;SDS011;23859;50.672;7.164;2023-03-07T01:38:49;10.18;;;6.28;;
38053;SDS011;23859;50.672;7.164;2023-03-07T01:41:19;9.60;;;5.55;;
38053;SDS011;23859;50.672;7.164;2023-03-07T01:43:45;11.52;;;6.35;;
38053;SDS011;23859;50.672;7.164;2023-03-07T01:48:43;10.10;;;6.50;;
38053;SDS011;23859;50.672;7.164;2023-03-07T01:51:13;9.57;;;5.25;;
38053;SDS011;23859;50.672;7.164;2023-03-07T01:53:40;8.27;;;4.82;;
38053;SDS011;23859;50.672;7.164;2023-03-07T01:56:06;8.32;;;5.00;;
38053;SDS011;23859;50.672;7.164;2023-03-07T01:58:35;7.25;;;4.65;;
38053;SDS011;23859;50.672;7.164;2023-03-07T02:01:04;4.82;;;3.95;;
38053;SDS011;23859;50.672;7.164;2023-03-07T02:06:32;5.15;;;3.42;;
38053;SDS011;23859;50.672;7.164;2023-03-07T02:09:01;5.75;;;3.38;;
38053;SDS011;23859;50.672;7.164;2023-03-07T02:11:29;5.72;;;3.55;;
38053;SDS011;23859;50.672;7.164;2023-03-07T02:13:56;5.10;;;3.20;;
38053;SDS011;23859;50.672;7.164;2023-03-07T02:16:22;5.45;;;3.42;;
38053;SDS011;23859;50.672;7.164;2023-03-07T02:18:48;5.70;;;3.33;;
38053;SDS011;23859;50.672;7.164;2023-03-07T02:21:21;4.90;;;3.33;;
38053;SDS011;23859;50.672;7.164;2023-03-07T02:26:56;4.93;;;3.50;;
38053;SDS011;23859;50.672;7.164;2023-03-07T02:29:22;5.78;;;3.55;;
38053;SDS011;23859;50.672;7.164;2023-03-07T02:31:48;6.18;;;3.70;;
38053;SDS011;23859;50.672;7.164;2023-03-07T02:34:19;5.82;;;3.10;;
38053;SDS011;23859;50.672;7.164;2023-03-07T02:37:03;6.00;;;3.90;;
38053;SDS011;23859;50.672;7.164;2023-03-07T02:39:41;6.25;;;4.25;;
38053;SDS011;23859;50.672;7.164;2023-03-07T02:42:16;6.35;;;4.03;;
38053;SDS011;23859;50.672;7.164;2023-03-07T02:44:59;6.90;;;4.30;;
38053;SDS011;23859;50.672;7.164;2023-03-07T02:47:28;6.35;;;3.53;;
38053;SDS011;23859;50.672;7.164;2023-03-07T02:49:54;7.30;;;4.20;;
38053;SDS011;23859;50.672;7.164;2023-03-07T02:52:20;4.65;;;3.42;;
38053;SDS011;23859;50.672;7.164;2023-03-07T02:54:47;5.88;;;3.78;;
38053;SDS011;23859;50.672;7.164;2023-03-07T02:57:13;5.07;;;3.40;;
38053;SDS011;23859;50.672;7.164;2023-03-07T02:59:40;6.65;;;4.63;;
38053;SDS011;23859;50.672;7.164;2023-03-07T03:02:06;5.38;;;3.60;;
38053;SDS011;23859;50.672;7.164;2023-03-07T03:04:32;6.97;;;4.22;;
38053;SDS011;23859;50.672;7.164;2023-03-07T03:06:59;6.53;;;4.22;;
38053;SDS011;23859;50.672;7.164;2023-03-07T03:09:25;6.43;;;4.32;;
38053;SDS011;23859;50.672;7.164;2023-03-07T03:11:51;6.50;;;4.40;;
38053;SDS011;23859;50.672;7.164;2023-03-07T03:14:17;6.00;;;4.22;;
38053;SDS011;23859;50.672;7.164;2023-03-07T03:16:43;6.38;;;4.60;;
38053;SDS011;23859;50.672;7.164;2023-03-07T03:19:09;7.05;;;4.68;;
38053;SDS011;23859;50.672;7.164;2023-03-07T03:21:35;8.27;;;5.43;;
38053;SDS011;23859;50.672;7.164;2023-03-07T03:24:03;8.55;;;5.55;;
38053;SDS011;23859;50.672;7.164;2023-03-07T03:26:30;9.15;;;5.70;;
38053;SDS011;23859;50.672;7.164;2023-03-07T03:28:57;7.97;;;5.43;;
38053;SDS011;23859;50.672;7.164;2023-03-07T03:31:23;7.45;;;4.80;;
38053;SDS011;23859;50.672;7.164;2023-03-07T03:33:50;7.97;;;4.95;;
38053;SDS011;23859;50.672;7.164;2023-03-07T03:36:17;7.82;;;4.95;;
38053;SDS011;23859;50.672;7.164;2023-03-07T03:38:43;7.72;;;4.68;;
38053;SDS011;23859;50.672;7.164;2023-03-07T03:41:11;10.55;;;5.22;;
38053;SDS011;23859;50.672;7.164;2023-03-07T03:43:41;8.85;;;5.20;;
38053;SDS011;23859;50.672;7.164;2023-03-07T03:46:07;8.13;;;5.32;;
38053;SDS011;23859;50.672;7.164;2023-03-07T03:48:34;10.63;;;6.38;;
38053;SDS011;23859;50.672;7.164;2023-03-07T03:51:01;10.25;;;6.28;;
38053;SDS011;23859;50.672;7.164;2023-03-07T03:53:29;9.48;;;5.68;;
38053;SDS011;23859;50.672;7.164;2023-03-07T03:56:00;7.55;;;5.30;;
38053;SDS011;23859;50.672;7.164;2023-03-07T03:58:34;9.82;;;5.65;;
38053;SDS011;23859;50.672;7.164;2023-03-07T04:01:00;7.60;;;5.15;;
38053;SDS011;23859;50.672;7.164;2023-03-07T04:03:30;9.10;;;5.60;;
38053;SDS011;23859;50.672;7.164;2023-03-07T04:06:00;10.70;;;6.20;;
38053;SDS011;23859;50.672;7.164;2023-03-07T04:08:28;9.82;;;5.53;;
38053;SDS011;23859;50.672;7.164;2023-03-07T04:10:54;10.45;;;6.22;;
38053;SDS011;23859;50.672;7.164;2023-03-07T04:13:21;10.70;;;6.70;;
38053;SDS011;23859;50.672;7.164;2023-03-07T04:15:47;9.73;;;6.35;;
38053;SDS011;23859;50.672;7.164;2023-03-07T04:18:13;10.57;;;6.45;;
38053;SDS011;23859;50.672;7.164;2023-03-07T04:20:39;11.40;;;6.57;;
38053;SDS011;23859;50.672;7.164;2023-03-07T04:23:07;10.85;;;6.70;;
38053;SDS011;23859;50.672;7.164;2023-03-07T04:25:33;12.48;;;7.57;;
38053;SDS011;23859;50.672;7.164;2023-03-07T04:28:00;14.18;;;7.25;;
38053;SDS011;23859;50.672;7.164;2023-03-07T04:30:26;11.70;;;7.45;;
38053;SDS011;23859;50.672;7.164;2023-03-07T04:32:52;12.05;;;6.85;;
38053;SDS011;23859;50.672;7.164;2023-03-07T04:35:18;12.15;;;8.25;;
38053;SDS011;23859;50.672;7.164;2023-03-07T04:37:45;12.98;;;8.32;;
38053;SDS011;23859;50.672;7.164;2023-03-07T04:40:11;14.02;;;7.45;;
38053;SDS011;23859;50.672;7.164;2023-03-07T04:42:37;16.23;;;8.57;;
38053;SDS011;23859;50.672;7.164;2023-03-07T04:45:03;14.43;;;8.18;;
38053;SDS011;23859;50.672;7.164;2023-03-07T04:47:30;15.15;;;9.23;;
38053;SDS011;23859;50.672;7.164;2023-03-07T04:49:56;14.68;;;8.98;;
38053;SDS011;23859;50.672;7.164;2023-03-07T04:52:22;13.38;;;8.25;;
38053;SDS011;23859;50.672;7.164;2023-03-07T04:54:48;16.60;;;8.38;;
38053;SDS011;23859;50.672;7.164;2023-03-07T04:57:14;14.25;;;8.85;;
38053;SDS011;23859;50.672;7.164;2023-03-07T04:59:40;16.02;;;8.85;;
38053;SDS011;23859;50.672;7.164;2023-03-07T05:02:06;14.93;;;9.52;;
38053;SDS011;23859;50.672;7.164;2023-03-07T05:04:35;14.93;;;10.05;;
38053;SDS011;23859;50.672;7.164;2023-03-07T05:07:02;19.67;;;9.85;;
38053;SDS011;23859;50.672;7.164;2023-03-07T05:09:28;19.02;;;11.30;;
38053;SDS011;23859;50.672;7.164;2023-03-07T05:11:55;20.80;;;11.00;;
38053;SDS011;23859;50.672;7.164;2023-03-07T05:14:21;18.38;;;9.63;;
38053;SDS011;23859;50.672;7.164;2023-03-07T05:16:47;18.38;;;10.25;;
38053;SDS011;23859;50.672;7.164;2023-03-07T05:19:13;20.10;;;11.18;;
38053;SDS011;23859;50.672;7.164;2023-03-07T05:21:39;17.00;;;9.52;;
38053;SDS011;23859;50.672;7.164;2023-03-07T05:24:06;18.92;;;10.20;;
38053;SDS011;23859;50.672;7.164;2023-03-07T05:26:32;17.52;;;10.35;;
38053;SDS011;23859;50.672;7.164;2023-03-07T05:28:58;17.95;;;10.38;;
38053;SDS011;23859;50.672;7.164;2023-03-07T05:31:24;17.55;;;11.00;;
38053;SDS011;23859;50.672;7.164;2023-03-07T05:33:50;19.27;;;11.18;;
38053;SDS011;23859;50.672;7.164;2023-03-07T05:36:17;19.77;;;10.13;;
38053;SDS011;23859;50.672;7.164;2023-03-07T05:38:43;18.85;;;10.73;;
38053;SDS011;23859;50.672;7.164;2023-03-07T05:41:09;22.45;;;11.60;;
38053;SDS011;23859;50.672;7.164;2023-03-07T05:43:35;20.63;;;11.05;;
38053;SDS011;23859;50.672;7.164;2023-03-07T05:46:01;21.35;;;11.07;;
38053;SDS011;23859;50.672;7.164;2023-03-07T05:48:27;20.88;;;11.63;;
38053;SDS011;23859;50.672;7.164;2023-03-07T05:50:53;18.40;;;10.80;;
38053;SDS011;23859;50.672;7.164;2023-03-07T05:53:22;18.73;;;10.93;;
38053;SDS011;23859;50.672;7.164;2023-03-07T05:55:48;22.02;;;11.43;;
38053;SDS011;23859;50.672;7.164;2023-03-07T05:58:14;20.20;;;10.60;;
38053;SDS011;23859;50.672;7.164;2023-03-07T06:00:40;20.65;;;10.57;;
38053;SDS011;23859;50.672;7.164;2023-03-07T06:03:07;17.35;;;10.02;;
38053;SDS011;23859;50.672;7.164;2023-03-07T06:05:33;23.40;;;11.48;;
38053;SDS011;23859;50.672;7.164;2023-03-07T06:07:59;19.55;;;11.60;;
38053;SDS011;23859;50.672;7.164;2023-03-07T06:10:25;15.95;;;9.50;;
38053;SDS011;23859;50.672;7.164;2023-03-07T06:12:52;19.08;;;10.50;;
38053;SDS011;23859;50.672;7.164;2023-03-07T06:15:18;23.17;;;11.82;;
38053;SDS011;23859;50.672;7.164;2023-03-07T06:17:45;18.88;;;11.25;;
38053;SDS011;23859;50.672;7.164;2023-03-07T06:20:11;19.60;;;9.60;;
38053;SDS011;23859;50.672;7.164;2023-03-07T06:22:38;16.45;;;9.82;;
38053;SDS011;23859;50.672;7.164;2023-03-07T06:25:04;17.42;;;9.70;;
38053;SDS011;23859;50.672;7.164;2023-03-07T06:27:35;15.25;;;9.77;;
38053;SDS011;23859;50.672;7.164;2023-03-07T06:30:03;14.27;;;8.75;;
38053;SDS011;23859;50.672;7.164;2023-03-07T06:32:30;17.58;;;10.18;;
38053;SDS011;23859;50.672;7.164;2023-03-07T06:34:57;17.90;;;10.45;;
38053;SDS011;23859;50.672;7.164;2023-03-07T06:37:23;15.80;;;9.00;;
38053;SDS011;23859;50.672;7.164;2023-03-07T06:39:49;17.67;;;9.30;;
38053;SDS011;23859;50.672;7.164;2023-03-07T06:42:17;17.85;;;9.82;;
38053;SDS011;23859;50.672;7.164;2023-03-07T06:44:43;19.70;;;9.77;;
38053;SDS011;23859;50.672;7.164;2023-03-07T06:47:09;18.63;;;9.75;;
38053;SDS011;23859;50.672;7.164;2023-03-07T06:49:35;18.05;;;9.30;;
38053;SDS011;23859;50.672;7.164;2023-03-07T06:52:01;16.85;;;9.18;;
38053;SDS011;23859;50.672;7.164;2023-03-07T06:54:27;18.70;;;9.98;;
38053;SDS011;23859;50.672;7.164;2023-03-07T06:56:53;16.20;;;9.40;;
38053;SDS011;23859;50.672;7.164;2023-03-07T06:59:19;16.27;;;10.02;;
38053;SDS011;23859;50.672;7.164;2023-03-07T07:01:45;17.05;;;9.68;;
38053;SDS011;23859;50.672;7.164;2023-03-07T07:04:12;16.52;;;9.43;;
38053;SDS011;23859;50.672;7.164;2023-03-07T07:06:38;14.05;;;8.75;;
38053;SDS011;23859;50.672;7.164;2023-03-07T07:09:04;15.93;;;9.10;;
38053;SDS011;23859;50.672;7.164;2023-03-07T07:11:30;14.82;;;9.13;;
38053;SDS011;23859;50.672;7.164;2023-03-07T07:13:57;15.90;;;9.70;;
38053;SDS011;23859;50.672;7.164;2023-03-07T07:16:23;13.75;;;8.50;;
38053;SDS011;23859;50.672;7.164;2023-03-07T07:18:49;13.95;;;8.07;;
38053;SDS011;23859;50.672;7.164;2023-03-07T07:21:16;16.70;;;9.35;;
38053;SDS011;23859;50.672;7.164;2023-03-07T07:23:42;17.38;;;8.30;;
38053;SDS011;23859;50.672;7.164;2023-03-07T07:26:08;15.60;;;9.50;;
38053;SDS011;23859;50.672;7.164;2023-03-07T07:28:34;22.85;;;9.90;;
38053;SDS011;23859;50.672;7.164;2023-03-07T07:31:00;18.17;;;9.13;;
38053;SDS011;23859;50.672;7.164;2023-03-07T07:33:27;17.35;;;9.55;;
38053;SDS011;23859;50.672;7.164;2023-03-07T07:35:54;16.50;;;9.32;;
38053;SDS011;23859;50.672;7.164;2023-03-07T07:38:20;13.15;;;8.15;;
38053;SDS011;23859;50.672;7.164;2023-03-07T07:40:46;23.08;;;8.93;;
38053;SDS011;23859;50.672;7.164;2023-03-07T07:43:15;17.77;;;8.80;;
38053;SDS011;23859;50.672;7.164;2023-03-07T07:45:42;17.98;;;9.35;;
38053;SDS011;23859;50.672;7.164;2023-03-07T07:48:08;14.57;;;9.07;;
38053;SDS011;23859;50.672;7.164;2023-03-07T07:50:34;15.45;;;8.70;;
38053;SDS011;23859;50.672;7.164;2023-03-07T07:53:01;14.75;;;9.02;;
38053;SDS011;23859;50.672;7.164;2023-03-07T07:55:27;19.38;;;8.88;;
38053;SDS011;23859;50.672;7.164;2023-03-07T07:57:53;13.75;;;8.85;;
38053;SDS011;23859;50.672;7.164;2023-03-07T08:00:19;17.67;;;8.90;;
38053;SDS011;23859;50.672;7.164;2023-03-07T08:02:48;17.63;;;8.77;;
38053;SDS011;23859;50.672;7.164;2023-03-07T08:05:16;15.70;;;9.23;;
38053;SDS011;23859;50.672;7.164;2023-03-07T08:07:43;18.50;;;9.63;;
38053;SDS011;23859;50.672;7.164;2023-03-07T08:10:10;15.48;;;8.68;;
38053;SDS011;23859;50.672;7.164;2023-03-07T08:12:43;14.88;;;8.55;;
38053;SDS011;23859;50.672;7.164;2023-03-07T08:15:15;15.52;;;8.73;;
38053;SDS011;23859;50.672;7.164;2023-03-07T08:17:42;16.88;;;9.05;;
38053;SDS011;23859;50.672;7.164;2023-03-07T08:20:09;15.45;;;8.38;;
38053;SDS011;23859;50.672;7.164;2023-03-07T08:22:35;16.77;;;8.55;;
38053;SDS011;23859;50.672;7.164;2023-03-07T08:25:02;16.63;;;8.52;;
38053;SDS011;23859;50.672;7.164;2023-03-07T08:27:29;16.13;;;8.82;;
38053;SDS011;23859;50.672;7.164;2023-03-07T08:29:56;15.07;;;8.75;;
38053;SDS011;23859;50.672;7.164;2023-03-07T08:32:22;14.93;;;8.55;;
38053;SDS011;23859;50.672;7.164;2023-03-07T08:34:48;15.80;;;8.80;;
38053;SDS011;23859;50.672;7.164;2023-03-07T08:37:14;14.93;;;8.10;;
38053;SDS011;23859;50.672;7.164;2023-03-07T08:39:40;13.73;;;7.78;;
38053;SDS011;23859;50.672;7.164;2023-03-07T08:42:06;12.77;;;7.90;;
38053;SDS011;23859;50.672;7.164;2023-03-07T08:44:32;11.50;;;6.95;;
38053;SDS011;23859;50.672;7.164;2023-03-07T08:46:58;12.38;;;7.63;;
38053;SDS011;23859;50.672;7.164;2023-03-07T08:49:24;13.57;;;7.15;;
38053;SDS011;23859;50.672;7.164;2023-03-07T08:51:50;15.23;;;8.02;;
38053;SDS011;23859;50.672;7.164;2023-03-07T08:54:16;12.15;;;7.40;;
38053;SDS011;23859;50.672;7.164;2023-03-07T08:56:43;10.98;;;6.70;;
38053;SDS011;23859;50.672;7.164;2023-03-07T08:59:09;13.02;;;7.40;;
38053;SDS011;23859;50.672;7.164;2023-03-07T09:01:35;11.25;;;7.18;;
38053;SDS011;23859;50.672;7.164;2023-03-07T09:04:01;9.00;;;6.75;;
38053;SDS011;23859;50.672;7.164;2023-03-07T09:06:31;11.60;;;6.65;;
38053;SDS011;23859;50.672;7.164;2023-03-07T09:08:57;14.68;;;7.13;;
38053;SDS011;23859;50.672;7.164;2023-03-07T09:11:23;11.95;;;6.72;;
38053;SDS011;23859;50.672;7.164;2023-03-07T09:13:50;10.02;;;6.43;;
38053;SDS011;23859;50.672;7.164;2023-03-07T09:16:16;11.60;;;6.60;;
38053;SDS011;23859;50.672;7.164;2023-03-07T09:18:42;11.02;;;6.88;;
38053;SDS011;23859;50.672;7.164;2023-03-07T09:21:08;9.00;;;6.00;;
38053;SDS011;23859;50.672;7.164;2023-03-07T09:23:34;10.00;;;5.45;;
38053;SDS011;23859;50.672;7.164;2023-03-07T09:26:01;11.43;;;6.68;;
38053;SDS011;23859;50.672;7.164;2023-03-07T09:28:29;11.45;;;6.43;;
38053;SDS011;23859;50.672;7.164;2023-03-07T09:30:55;11.73;;;6.50;;
38053;SDS011;23859;50.672;7.164;2023-03-07T09:33:21;12.57;;;5.80;;
38053;SDS011;23859;50.672;7.164;2023-03-07T09:35:47;11.43;;;7.03;;
38053;SDS011;23859;50.672;7.164;2023-03-07T09:38:13;13.02;;;6.82;;
38053;SDS011;23859;50.672;7.164;2023-03-07T09:40:40;10.63;;;6.47;;
38053;SDS011;23859;50.672;7.164;2023-03-07T09:43:16;10.50;;;6.53;;
38053;SDS011;23859;50.672;7.164;2023-03-07T09:45:45;11.48;;;6.35;;
38053;SDS011;23859;50.672;7.164;2023-03-07T09:53:44;12.20;;;5.95;;
38053;SDS011;23859;50.672;7.164;2023-03-07T09:56:15;11.02;;;6.32;;
38053;SDS011;23859;50.672;7.164;2023-03-07T09:59:16;10.23;;;5.80;;
38053;SDS011;23859;50.672;7.164;2023-03-07T10:01:50;11.15;;;5.85;;
38053;SDS011;23859;50.672;7.164;2023-03-07T10:04:26;10.95;;;5.95;;
38053;SDS011;23859;50.672;7.164;2023-03-07T10:07:04;11.45;;;6.25;;
38053;SDS011;23859;50.672;7.164;2023-03-07T10:09:33;9.45;;;6.13;;
38053;SDS011;23859;50.672;7.164;2023-03-07T10:12:14;9.05;;;5.80;;
38053;SDS011;23859;50.672;7.164;2023-03-07T10:17:45;14.90;;;5.90;;
38053;SDS011;23859;50.672;7.164;2023-03-07T10:23:17;11.02;;;5.47;;
38053;SDS011;23859;50.672;7.164;2023-03-07T10:26:33;9.93;;;5.35;;
38053;SDS011;23859;50.672;7.164;2023-03-07T10:29:18;8.32;;;5.43;;
38053;SDS011;23859;50.672;7.164;2023-03-07T10:31:50;8.55;;;5.28;;
38053;SDS011;23859;50.672;7.164;2023-03-07T10:34:23;8.68;;;5.78;;
38053;SDS011;23859;50.672;7.164;2023-03-07T10:36:51;10.05;;;5.60;;
38053;SDS011;23859;50.672;7.164;2023-03-07T10:42:26;6.57;;;4.50;;
38053;SDS011;23859;50.672;7.164;2023-03-07T10:44:58;8.18;;;4.68;;
38053;SDS011;23859;50.672;7.164;2023-03-07T10:47:26;9.15;;;4.80;;
38053;SDS011;23859;50.672;7.164;2023-03-07T10:52:47;6.32;;;4.68;;
38053;SDS011;23859;50.672;7.164;2023-03-07T10:58:10;9.00;;;3.95;;
38053;SDS011;23859;50.672;7.164;2023-03-07T11:00:38;6.55;;;3.67;;
38053;SDS011;23859;50.672;7.164;2023-03-07T11:03:17;6.82;;;4.07;;
38053;SDS011;23859;50.672;7.164;2023-03-07T11:05:47;6.60;;;4.10;;
38053;SDS011;23859;50.672;7.164;2023-03-07T11:08:21;5.40;;;3.65;;
38053;SDS011;23859;50.672;7.164;2023-03-07T11:11:11;8.23;;;4.13;;
38053;SDS011;23859;50.672;7.164;2023-03-07T11:14:04;7.45;;;4.60;;
38053;SDS011;23859;50.672;7.164;2023-03-07T11:16:41;8.75;;;3.92;;
38053;SDS011;23859;50.672;7.164;2023-03-07T11:19:32;4.63;;;3.45;;
38053;SDS011;23859;50.672;7.164;2023-03-07T11:22:04;5.70;;;3.20;;
38053;SDS011;23859;50.672;7.164;2023-03-07T11:24:37;8.75;;;3.42;;
38053;SDS011;23859;50.672;7.164;2023-03-07T11:27:04;8.23;;;3.72;;
38053;SDS011;23859;50.672;7.164;2023-03-07T11:29:30;5.82;;;3.53;;
38053;SDS011;23859;50.672;7.164;2023-03-07T11:34:48;5.65;;;3.75;;
38053;SDS011;23859;50.672;7.164;2023-03-07T11:39:58;5.45;;;3.65;;
38053;SDS011;23859;50.672;7.164;2023-03-07T11:42:59;4.82;;;3.20;;
38053;SDS011;23859;50.672;7.164;2023-03-07T11:45:49;5.65;;;3.65;;
38053;SDS011;23859;50.672;7.164;2023-03-07T11:48:27;6.30;;;3.40;;
38053;SDS011;23859;50.672;7.164;2023-03-07T11:51:29;6.43;;;3.58;;
38053;SDS011;23859;50.672;7.164;2023-03-07T11:54:13;5.93;;;3.55;;
38053;SDS011;23859;50.672;7.164;2023-03-07T11:56:52;5.63;;;3.60;;
38053;SDS011;23859;50.672;7.164;2023-03-07T11:59:34;7.90;;;4.55;;
38053;SDS011;23859;50.672;7.164;2023-03-07T12:05:19;7.05;;;3.63;;
38053;SDS011;23859;50.672;7.164;2023-03-07T12:11:00;4.68;;;3.38;;
38053;SDS011;23859;50.672;7.164;2023-03-07T12:13:52;5.65;;;3.88;;
38053;SDS011;23859;50.672;7.164;2023-03-07T12:22:21;5.20;;;3.63;;
38053;SDS011;23859;50.672;7.164;2023-03-07T12:28:31;5.05;;;3.88;;
38053;SDS011;23859;50.672;7.164;2023-03-07T12:33:51;8.48;;;4.40;;
38053;SDS011;23859;50.672;7.164;2023-03-07T12:38:58;8.38;;;4.13;;
38053;SDS011;23859;50.672;7.164;2023-03-07T12:41:41;9.18;;;5.15;;
38053;SDS011;23859;50.672;7.164;2023-03-07T12:44:26;6.65;;;4.32;;
38053;SDS011;23859;50.672;7.164;2023-03-07T12:52:29;8.20;;;4.65;;
38053;SDS011;23859;50.672;7.164;2023-03-07T13:01:01;7.15;;;4.70;;
38053;SDS011;23859;50.672;7.164;2023-03-07T13:06:29;10.00;;;5.00;;
38053;SDS011;23859;50.672;7.164;2023-03-07T13:08:57;8.77;;;5.53;;
38053;SDS011;23859;50.672;7.164;2023-03-07T13:11:28;8.30;;;5.45;;
38053;SDS011;23859;50.672;7.164;2023-03-07T13:13:57;7.78;;;5.10;;
38053;SDS011;23859;50.672;7.164;2023-03-07T13:24:47;10.85;;;4.22;;
38053;SDS011;23859;50.672;7.164;2023-03-07T13:27:24;11.57;;;5.10;;
38053;SDS011;23859;50.672;7.164;2023-03-07T13:58:43;9.23;;;5.18;;
38053;SDS011;23859;50.672;7.164;2023-03-07T14:01:34;9.20;;;4.72;;
38053;SDS011;23859;50.672;7.164;2023-03-07T14:06:44;7.10;;;4.63;;
38053;SDS011;23859;50.672;7.164;2023-03-07T14:09:14;9.20;;;5.45;;
38053;SDS011;23859;50.672;7.164;2023-03-07T14:12:16;8.65;;;5.38;;
38053;SDS011;23859;50.672;7.164;2023-03-07T14:24:09;9.23;;;5.28;;
38053;SDS011;23859;50.672;7.164;2023-03-07T14:26:54;8.45;;;4.38;;
38053;SDS011;23859;50.672;7.164;2023-03-07T14:29:26;8.65;;;4.60;;
38053;SDS011;23859;50.672;7.164;2023-03-07T14:31:55;9.20;;;4.70;;
38053;SDS011;23859;50.672;7.164;2023-03-07T14:36:55;9.25;;;4.88;;
38053;SDS011;23859;50.672;7.164;2023-03-07T14:50:26;7.00;;;4.60;;
38053;SDS011;23859;50.672;7.164;2023-03-07T14:53:04;7.07;;;4.88;;
38053;SDS011;23859;50.672;7.164;2023-03-07T14:55:41;8.35;;;4.63;;
38053;SDS011;23859;50.672;7.164;2023-03-07T14:58:21;9.80;;;4.97;;
38053;SDS011;23859;50.672;7.164;2023-03-07T15:03:29;8.43;;;4.78;;
38053;SDS011;23859;50.672;7.164;2023-03-07T15:05:57;12.10;;;6.75;;
38053;SDS011;23859;50.672;7.164;2023-03-07T15:08:25;9.82;;;6.70;;
38053;SDS011;23859;50.672;7.164;2023-03-07T15:11:12;10.63;;;7.80;;
38053;SDS011;23859;50.672;7.164;2023-03-07T15:13:46;14.40;;;9.88;;
38053;SDS011;23859;50.672;7.164;2023-03-07T15:16:20;15.18;;;8.85;;
38053;SDS011;23859;50.672;7.164;2023-03-07T15:19:10;14.68;;;10.20;;
38053;SDS011;23859;50.672;7.164;2023-03-07T15:21:50;16.65;;;10.73;;
38053;SDS011;23859;50.672;7.164;2023-03-07T15:24:20;18.27;;;10.57;;
38053;SDS011;23859;50.672;7.164;2023-03-07T15:26:55;19.40;;;10.57;;
38053;SDS011;23859;50.672;7.164;2023-03-07T15:29:25;14.95;;;9.25;;
38053;SDS011;23859;50.672;7.164;2023-03-07T15:32:00;10.40;;;6.72;;
38053;SDS011;23859;50.672;7.164;2023-03-07T15:34:34;10.63;;;7.38;;
38053;SDS011;23859;50.672;7.164;2023-03-07T15:37:21;11.82;;;7.43;;
38053;SDS011;23859;50.672;7.164;2023-03-07T15:42:54;11.18;;;6.82;;
38053;SDS011;23859;50.672;7.164;2023-03-07T15:45:32;12.93;;;7.55;;
38053;SDS011;23859;50.672;7.164;2023-03-07T15:51:13;6.63;;;5.22;;
38053;SDS011;23859;50.672;7.164;2023-03-07T15:53:42;9.35;;;6.15;;
38053;SDS011;23859;50.672;7.164;2023-03-07T15:59:03;14.07;;;6.25;;
38053;SDS011;23859;50.672;7.164;2023-03-07T16:01:48;10.18;;;5.75;;
38053;SDS011;23859;50.672;7.164;2023-03-07T16:06:59;12.23;;;5.60;;
38053;SDS011;23859;50.672;7.164;2023-03-07T16:09:25;8.23;;;5.68;;
38053;SDS011;23859;50.672;7.164;2023-03-07T16:11:51;9.77;;;5.63;;
38053;SDS011;23859;50.672;7.164;2023-03-07T16:14:19;10.90;;;6.53;;
38053;SDS011;23859;50.672;7.164;2023-03-07T16:17:01;9.65;;;6.13;;
38053;SDS011;23859;50.672;7.164;2023-03-07T16:19:35;10.23;;;5.95;;
38053;SDS011;23859;50.672;7.164;2023-03-07T16:22:01;11.10;;;6.85;;
38053;SDS011;23859;50.672;7.164;2023-03-07T16:24:28;10.55;;;6.05;;
38053;SDS011;23859;50.672;7.164;2023-03-07T16:26:54;9.85;;;5.45;;
38053;SDS011;23859;50.672;7.164;2023-03-07T16:29:21;7.55;;;5.47;;
38053;SDS011;23859;50.672;7.164;2023-03-07T16:31:48;11.93;;;6.25;;
38053;SDS011;23859;50.672;7.164;2023-03-07T16:34:15;8.48;;;5.45;;
38053;SDS011;23859;50.672;7.164;2023-03-07T16:36:46;9.05;;;6.30;;
38053;SDS011;23859;50.672;7.164;2023-03-07T16:39:12;10.93;;;6.03;;
38053;SDS011;23859;50.672;7.164;2023-03-07T16:41:46;10.13;;;5.63;;
38053;SDS011;23859;50.672;7.164;2023-03-07T16:44:17;10.65;;;6.10;;
38053;SDS011;23859;50.672;7.164;2023-03-07T16:46:45;8.57;;;5.65;;
38053;SDS011;23859;50.672;7.164;2023-03-07T16:49:28;11.95;;;6.45;;
38053;SDS011;23859;50.672;7.164;2023-03-07T16:51:54;9.63;;;6.00;;
38053;SDS011;23859;50.672;7.164;2023-03-07T16:54:20;11.63;;;6.55;;
38053;SDS011;23859;50.672;7.164;2023-03-07T16:56:47;10.50;;;6.53;;
38053;SDS011;23859;50.672;7.164;2023-03-07T16:59:15;11.13;;;7.00;;
38053;SDS011;23859;50.672;7.164;2023-03-07T17:01:44;9.77;;;5.85;;
38053;SDS011;23859;50.672;7.164;2023-03-07T17:04:12;10.25;;;6.35;;
38053;SDS011;23859;50.672;7.164;2023-03-07T17:06:38;10.45;;;6.35;;
38053;SDS011;23859;50.672;7.164;2023-03-07T17:09:06;8.75;;;5.93;;
38053;SDS011;23859;50.672;7.164;2023-03-07T17:11:34;23.92;;;13.80;;
38053;SDS011;23859;50.672;7.164;2023-03-07T17:14:03;17.33;;;11.13;;
38053;SDS011;23859;50.672;7.164;2023-03-07T17:16:33;13.15;;;8.35;;
38053;SDS011;23859;50.672;7.164;2023-03-07T17:19:02;11.68;;;7.20;;
38053;SDS011;23859;50.672;7.164;2023-03-07T17:21:29;11.13;;;6.57;;
38053;SDS011;23859;50.672;7.164;2023-03-07T17:23:55;11.80;;;7.45;;